createdAt,value
2023-02-09T00:00:22.553Z,18.60
2023-02-09T00:01:57.484Z,16.50
2023-02-09T00:03:30.971Z,13.32
2023-02-09T00:05:05.688Z,14.23
2023-02-09T00:06:38.892Z,15.45
2023-02-09T00:08:12.111Z,12.20
2023-02-09T00:09:45.817Z,12.82
2023-02-09T00:11:22.165Z,12.43
2023-02-09T00:13:12.866Z,13.77
2023-02-09T00:14:45.183Z,12.32
2023-02-09T00:16:18.426Z,13.48
2023-02-09T00:17:51.541Z,17.25
2023-02-09T00:19:24.894Z,16.25
2023-02-09T00:21:00.745Z,19.33
2023-02-09T00:22:34.252Z,18.13
2023-02-09T00:24:10.805Z,14.70
2023-02-09T00:25:44.077Z,14.43
2023-02-09T00:27:17.458Z,13.13
2023-02-09T00:28:50.708Z,14.07
2023-02-09T00:30:26.726Z,14.18
2023-02-09T00:32:00.017Z,11.32
2023-02-09T00:33:33.459Z,12.13
2023-02-09T00:35:08.514Z,12.43
2023-02-09T00:36:43.039Z,12.38
2023-02-09T00:38:17.241Z,12.45
2023-02-09T00:39:50.561Z,10.80
2023-02-09T00:41:38.298Z,11.02
2023-02-09T00:43:12.287Z,10.07
2023-02-09T00:44:46.350Z,11.20
2023-02-09T00:46:19.622Z,15.27
2023-02-09T00:47:53.385Z,14.30
2023-02-09T00:49:26.638Z,16.30
2023-02-09T00:51:00.172Z,18.45
2023-02-09T00:52:35.042Z,17.35
2023-02-09T00:54:08.259Z,15.93
2023-02-09T00:55:41.356Z,14.77
2023-02-09T00:57:14.657Z,12.95
2023-02-09T00:58:47.801Z,14.68
2023-02-09T01:00:21.686Z,13.60
2023-02-09T01:01:54.797Z,13.45
2023-02-09T01:03:28.097Z,12.40
2023-02-09T01:05:00.409Z,10.57
2023-02-09T01:06:34.222Z,11.38
2023-02-09T01:08:08.927Z,10.88
2023-02-09T01:09:42.305Z,10.30
2023-02-09T01:11:15.910Z,11.38
2023-02-09T01:12:49.134Z,10.20
2023-02-09T01:14:22.260Z,10.52
2023-02-09T01:15:55.598Z,10.63
2023-02-09T01:17:29.176Z,13.15
2023-02-09T01:19:03.971Z,12.65
2023-02-09T01:20:37.319Z,13.40
2023-02-09T01:22:12.475Z,11.38
2023-02-09T01:23:48.368Z,10.57
2023-02-09T01:25:23.292Z,10.43
2023-02-09T01:26:55.364Z,11.90
2023-02-09T01:28:28.674Z,13.52
2023-02-09T01:30:02.156Z,12.30
2023-02-09T01:31:35.920Z,10.23
2023-02-09T01:33:09.146Z,11.40
2023-02-09T01:34:42.450Z,10.90
2023-02-09T01:36:15.781Z,10.48
2023-02-09T01:37:49.008Z,10.48
2023-02-09T01:39:23.545Z,10.32
2023-02-09T01:40:56.738Z,10.60
2023-02-09T01:42:29.946Z,11.40
2023-02-09T01:44:07.110Z,10.73
2023-02-09T01:45:46.171Z,13.40
2023-02-09T01:47:21.263Z,12.65
2023-02-09T01:49:00.733Z,12.27
2023-02-09T01:50:38.018Z,12.48
2023-02-09T01:52:14.122Z,9.43
2023-02-09T01:53:47.989Z,10.10
2023-02-09T01:55:26.768Z,8.88
2023-02-09T01:57:04.840Z,9.77
2023-02-09T01:58:38.490Z,9.85
2023-02-09T02:00:15.466Z,12.25
2023-02-09T02:01:48.864Z,11.65
2023-02-09T02:03:25.252Z,11.63
2023-02-09T02:04:58.522Z,11.65
2023-02-09T02:06:32.350Z,10.65
2023-02-09T02:08:10.365Z,10.73
2023-02-09T02:09:43.286Z,10.10
2023-02-09T02:11:18.676Z,12.70
2023-02-09T02:12:52.871Z,10.77
2023-02-09T02:14:29.775Z,9.38
2023-02-09T02:16:07.992Z,11.75
2023-02-09T02:17:53.241Z,8.15
2023-02-09T02:20:08.526Z,9.23
2023-02-09T02:22:07.882Z,10.80
2023-02-09T02:23:48.703Z,10.38
2023-02-09T02:25:57.263Z,11.20
2023-02-09T02:27:40.832Z,9.75
2023-02-09T02:29:31.273Z,11.98
2023-02-09T02:31:54.357Z,10.40
2023-02-09T02:33:41.707Z,9.07
2023-02-09T02:35:21.223Z,7.57
2023-02-09T02:37:02.615Z,8.95
2023-02-09T02:38:44.598Z,9.38
2023-02-09T02:40:27.006Z,9.23
2023-02-09T02:42:21.677Z,7.35
2023-02-09T02:44:03.767Z,8.60
2023-02-09T02:45:44.364Z,8.48
2023-02-09T02:47:21.967Z,7.15
2023-02-09T02:48:58.825Z,8.68
2023-02-09T02:50:34.091Z,6.60
2023-02-09T02:52:11.080Z,7.57
2023-02-09T02:53:49.866Z,8.88
2023-02-09T02:55:26.114Z,7.75
2023-02-09T02:57:04.518Z,10.95
2023-02-09T02:58:41.729Z,10.27
2023-02-09T03:00:19.625Z,12.00
2023-02-09T03:01:57.849Z,10.85
2023-02-09T03:03:35.223Z,11.23
2023-02-09T03:05:09.976Z,8.93
2023-02-09T03:06:43.441Z,9.10
2023-02-09T03:08:15.759Z,9.88
2023-02-09T03:09:52.626Z,9.90
2023-02-09T03:11:31.789Z,12.00
2023-02-09T03:13:16.224Z,11.48
2023-02-09T03:15:09.898Z,11.10
2023-02-09T03:16:47.214Z,10.90
2023-02-09T03:18:27.062Z,11.40
2023-02-09T03:20:07.064Z,9.07
2023-02-09T03:21:49.041Z,10.13
2023-02-09T03:23:30.627Z,7.85
2023-02-09T03:25:08.955Z,8.15
2023-02-09T03:26:52.107Z,7.63
2023-02-09T03:28:30.195Z,9.02
2023-02-09T03:30:06.417Z,10.93
2023-02-09T03:31:41.078Z,9.52
2023-02-09T03:33:25.351Z,8.32
2023-02-09T03:34:59.816Z,9.50
2023-02-09T03:36:37.408Z,9.70
2023-02-09T03:38:10.593Z,3.40
2023-02-09T03:39:43.774Z,9.77
2023-02-09T03:41:17.004Z,8.35
2023-02-09T03:42:50.899Z,9.93
2023-02-09T03:44:29.427Z,8.02
2023-02-09T03:46:02.614Z,6.40
2023-02-09T03:47:36.070Z,9.02
2023-02-09T03:49:09.193Z,9.73
2023-02-09T03:50:42.440Z,5.43
2023-02-09T03:52:17.846Z,7.43
2023-02-09T03:53:50.670Z,3.95
2023-02-09T03:55:23.777Z,13.57
2023-02-09T03:56:57.035Z,8.45
2023-02-09T03:58:29.556Z,13.23
2023-02-09T04:00:04.090Z,8.73
2023-02-09T04:01:45.043Z,8.13
2023-02-09T04:03:18.248Z,11.48
2023-02-09T04:04:51.817Z,9.20
2023-02-09T04:06:25.486Z,10.05
2023-02-09T04:08:00.656Z,11.23
2023-02-09T04:09:34.134Z,10.63
2023-02-09T04:11:07.640Z,10.65
2023-02-09T04:12:41.086Z,9.15
2023-02-09T04:14:14.505Z,7.57
2023-02-09T04:15:48.893Z,9.65
2023-02-09T04:17:22.085Z,10.82
2023-02-09T04:18:55.461Z,10.25
2023-02-09T04:20:28.652Z,10.05
2023-02-09T04:22:02.193Z,9.20
2023-02-09T04:23:36.710Z,12.27
2023-02-09T04:25:10.125Z,11.75
2023-02-09T04:26:43.350Z,12.75
2023-02-09T04:28:16.667Z,12.40
2023-02-09T04:29:49.990Z,11.70
2023-02-09T04:31:23.380Z,15.73
2023-02-09T04:32:56.574Z,14.85
2023-02-09T04:34:29.698Z,15.07
2023-02-09T04:36:03.577Z,17.73
2023-02-09T04:37:36.977Z,24.08
2023-02-09T04:39:11.771Z,36.22
2023-02-09T04:40:45.112Z,25.63
2023-02-09T04:42:18.575Z,34.08
2023-02-09T04:43:51.833Z,21.27
2023-02-09T04:45:24.946Z,21.63
2023-02-09T04:46:58.080Z,19.15
2023-02-09T04:48:32.002Z,20.88
2023-02-09T04:50:05.890Z,17.75
2023-02-09T04:51:39.145Z,17.33
2023-02-09T04:53:12.796Z,15.10
2023-02-09T04:54:47.380Z,14.55
2023-02-09T04:56:20.645Z,15.15
2023-02-09T04:58:11.585Z,12.93
2023-02-09T04:59:45.011Z,13.45
2023-02-09T05:01:21.263Z,13.40
2023-02-09T05:02:55.657Z,17.00
2023-02-09T05:04:28.817Z,15.77
2023-02-09T05:06:03.869Z,18.30
2023-02-09T05:07:37.041Z,21.85
2023-02-09T05:09:10.470Z,23.35
2023-02-09T05:10:45.175Z,23.15
2023-02-09T05:12:18.390Z,22.33
2023-02-09T05:13:51.911Z,20.63
2023-02-09T05:15:25.325Z,20.13
2023-02-09T05:16:58.527Z,15.93
2023-02-09T05:18:31.695Z,16.73
2023-02-09T05:20:05.308Z,15.13
2023-02-09T05:21:38.734Z,15.02
2023-02-09T05:23:12.832Z,14.73
2023-02-09T05:24:46.004Z,16.23
2023-02-09T05:26:20.795Z,17.83
2023-02-09T05:27:53.931Z,18.05
2023-02-09T05:29:27.389Z,20.35
2023-02-09T05:31:00.631Z,20.65
2023-02-09T05:32:33.999Z,18.27
2023-02-09T05:34:07.227Z,18.08
2023-02-09T05:35:40.341Z,17.02
2023-02-09T05:37:13.581Z,15.45
2023-02-09T05:38:46.882Z,16.02
2023-02-09T05:40:20.297Z,21.25
2023-02-09T05:42:12.185Z,18.98
2023-02-09T05:43:45.345Z,17.05
2023-02-09T05:45:18.744Z,17.20
2023-02-09T05:46:52.061Z,15.02
2023-02-09T05:48:25.142Z,17.25
2023-02-09T05:49:58.284Z,19.23
2023-02-09T05:51:31.474Z,20.90
2023-02-09T05:53:04.922Z,19.33
2023-02-09T05:54:38.553Z,18.92
2023-02-09T05:56:11.740Z,16.52
2023-02-09T05:57:46.318Z,19.23
2023-02-09T05:59:19.721Z,20.00
2023-02-09T06:00:52.891Z,21.45
2023-02-09T06:02:26.301Z,14.85
2023-02-09T06:03:59.703Z,16.95
2023-02-09T06:05:32.844Z,15.07
2023-02-09T06:07:06.323Z,12.02
2023-02-09T06:08:39.444Z,13.63
2023-02-09T06:10:12.744Z,10.85
2023-02-09T06:11:46.492Z,14.70
2023-02-09T06:13:20.976Z,18.40
2023-02-09T06:14:54.153Z,21.52
2023-02-09T06:16:27.514Z,24.83
2023-02-09T06:18:00.883Z,19.67
2023-02-09T06:19:34.047Z,19.98
2023-02-09T06:21:07.674Z,21.73
2023-02-09T06:22:41.098Z,16.60
2023-02-09T06:24:14.954Z,14.38
2023-02-09T06:25:48.092Z,15.40
2023-02-09T06:27:21.209Z,18.65
2023-02-09T06:28:56.020Z,13.48
2023-02-09T06:30:29.631Z,13.63
2023-02-09T06:32:02.921Z,16.25
2023-02-09T06:33:37.069Z,14.68
2023-02-09T06:35:10.250Z,11.82
2023-02-09T06:36:43.676Z,12.57
2023-02-09T06:38:16.731Z,14.07
2023-02-09T06:39:50.107Z,12.75
2023-02-09T06:41:23.535Z,13.68
2023-02-09T06:42:56.777Z,12.38
2023-02-09T06:44:31.252Z,13.43
2023-02-09T06:46:07.805Z,12.43
2023-02-09T06:47:42.883Z,14.43
2023-02-09T06:49:16.303Z,12.80
2023-02-09T06:50:49.536Z,12.25
2023-02-09T06:52:22.862Z,12.63
2023-02-09T06:53:56.317Z,14.43
2023-02-09T06:55:29.547Z,12.77
2023-02-09T06:57:02.697Z,13.40
2023-02-09T06:58:36.069Z,14.40
2023-02-09T07:00:12.850Z,17.60
2023-02-09T07:01:46.280Z,12.05
2023-02-09T07:03:19.408Z,12.10
2023-02-09T07:04:52.540Z,12.40
2023-02-09T07:06:25.655Z,10.57
2023-02-09T07:07:58.927Z,12.07
2023-02-09T07:09:32.222Z,11.23
2023-02-09T07:11:06.494Z,11.48
2023-02-09T07:12:40.733Z,10.93
2023-02-09T07:14:14.101Z,11.50
2023-02-09T07:15:56.137Z,9.90
2023-02-09T07:17:30.019Z,12.55
2023-02-09T07:19:03.296Z,12.27
2023-02-09T07:20:36.656Z,12.50
2023-02-09T07:22:09.750Z,14.02
2023-02-09T07:23:43.074Z,15.93
2023-02-09T07:25:16.502Z,12.38
2023-02-09T07:26:49.930Z,16.48
2023-02-09T07:28:23.537Z,11.50
2023-02-09T07:29:56.717Z,11.32
2023-02-09T07:31:31.322Z,12.90
2023-02-09T07:33:04.624Z,12.07
2023-02-09T07:34:37.813Z,13.43
2023-02-09T07:36:14.023Z,10.48
2023-02-09T07:37:47.467Z,12.20
2023-02-09T07:39:20.698Z,13.13
2023-02-09T07:40:54.338Z,11.88
2023-02-09T07:42:27.557Z,14.05
2023-02-09T07:44:07.747Z,15.82
2023-02-09T07:45:41.895Z,14.63
2023-02-09T07:47:16.429Z,15.55
2023-02-09T07:48:50.228Z,15.93
2023-02-09T07:50:23.449Z,15.60
2023-02-09T07:51:56.752Z,12.57
2023-02-09T07:53:30.600Z,11.80
2023-02-09T07:55:04.149Z,14.48
2023-02-09T07:56:37.649Z,20.05
2023-02-09T07:58:10.890Z,15.02
2023-02-09T07:59:44.024Z,13.93
2023-02-09T08:01:17.968Z,12.48
2023-02-09T08:02:52.997Z,12.15
2023-02-09T08:04:26.309Z,11.70
2023-02-09T08:06:03.615Z,11.10
2023-02-09T08:07:36.812Z,11.95
2023-02-09T08:09:10.765Z,13.63
2023-02-09T08:10:44.503Z,13.55
2023-02-09T08:12:17.774Z,15.45
2023-02-09T08:13:52.122Z,15.90
2023-02-09T08:15:25.551Z,17.30
2023-02-09T08:17:16.905Z,21.70
2023-02-09T08:18:55.594Z,15.55
2023-02-09T08:20:31.295Z,16.83
2023-02-09T08:22:04.466Z,16.08
2023-02-09T08:23:40.401Z,17.42
2023-02-09T08:25:15.920Z,18.42
2023-02-09T08:26:49.211Z,18.38
2023-02-09T08:28:34.896Z,16.58
2023-02-09T08:30:17.837Z,14.75
2023-02-09T08:31:51.209Z,11.77
2023-02-09T08:33:24.481Z,15.88
2023-02-09T08:34:59.024Z,15.45
2023-02-09T08:36:34.379Z,15.48
2023-02-09T08:38:07.673Z,13.27
2023-02-09T08:39:40.902Z,13.07
2023-02-09T08:41:16.297Z,13.93
2023-02-09T08:42:49.461Z,15.02
2023-02-09T08:44:22.683Z,14.13
2023-02-09T08:45:56.048Z,10.23
2023-02-09T08:47:29.237Z,13.82
2023-02-09T08:49:02.469Z,17.17
2023-02-09T08:50:37.580Z,12.82
2023-02-09T08:52:10.808Z,10.55
2023-02-09T08:53:46.311Z,10.77
2023-02-09T08:55:19.622Z,9.85
2023-02-09T08:56:52.980Z,8.82
2023-02-09T08:58:26.494Z,8.90
2023-02-09T08:59:59.803Z,9.40
2023-02-09T09:01:33.017Z,11.63
2023-02-09T09:03:07.415Z,9.52
2023-02-09T09:04:40.883Z,11.23
2023-02-09T09:06:15.477Z,9.13
2023-02-09T09:07:48.824Z,9.60
2023-02-09T09:09:22.048Z,11.07
2023-02-09T09:10:55.942Z,8.98
2023-02-09T09:12:30.824Z,9.75
2023-02-09T09:14:03.909Z,10.00
2023-02-09T09:15:38.505Z,10.00
2023-02-09T09:17:11.936Z,8.48
2023-02-09T09:18:45.640Z,8.95
2023-02-09T09:20:19.212Z,9.15
2023-02-09T09:21:53.800Z,8.55
2023-02-09T09:23:27.174Z,7.15
2023-02-09T09:25:00.272Z,6.40
2023-02-09T09:26:35.164Z,7.30
2023-02-09T09:28:09.112Z,8.77
2023-02-09T09:29:42.890Z,9.57
2023-02-09T09:31:17.854Z,8.07
2023-02-09T09:32:52.974Z,8.23
2023-02-09T09:34:26.386Z,7.20
2023-02-09T09:36:01.064Z,8.35
2023-02-09T09:37:35.638Z,8.38
2023-02-09T09:39:08.823Z,7.45
2023-02-09T09:40:45.650Z,8.60
2023-02-09T09:42:25.507Z,7.43
2023-02-09T09:43:58.877Z,6.78
2023-02-09T09:45:36.390Z,7.57
2023-02-09T09:47:17.448Z,2.03
2023-02-09T09:48:54.510Z,7.35
2023-02-09T09:50:32.719Z,7.85
2023-02-09T09:52:10.285Z,8.80
2023-02-09T09:53:48.208Z,9.30
2023-02-09T09:55:25.446Z,8.98
2023-02-09T09:56:58.616Z,12.18
2023-02-09T09:58:34.046Z,8.73
2023-02-09T10:00:19.278Z,6.90
2023-02-09T10:01:54.820Z,8.10
2023-02-09T10:03:28.231Z,6.95
2023-02-09T10:05:06.341Z,8.35
2023-02-09T10:06:42.739Z,7.88
2023-02-09T10:08:21.244Z,8.40
2023-02-09T10:10:00.166Z,7.63
2023-02-09T10:11:39.190Z,7.18
2023-02-09T10:13:22.049Z,10.30
2023-02-09T10:14:55.233Z,9.95
2023-02-09T10:16:30.573Z,11.40
2023-02-09T10:18:04.172Z,7.88
2023-02-09T10:19:37.838Z,8.80
2023-02-09T10:21:13.784Z,9.30
2023-02-09T10:22:52.501Z,9.70
2023-02-09T10:24:28.198Z,7.93
2023-02-09T10:26:05.839Z,8.00
2023-02-09T10:27:46.460Z,9.23
2023-02-09T10:29:25.575Z,6.50
2023-02-09T10:31:02.040Z,7.50
2023-02-09T10:32:40.059Z,2.75
2023-02-09T10:34:15.897Z,7.28
2023-02-09T10:35:52.218Z,7.20
2023-02-09T10:37:29.074Z,8.05
2023-02-09T10:39:15.485Z,9.65
2023-02-09T10:40:49.916Z,6.40
2023-02-09T10:42:29.055Z,5.90
2023-02-09T10:44:06.995Z,6.85
2023-02-09T10:45:46.027Z,7.25
2023-02-09T10:47:29.595Z,7.15
2023-02-09T10:49:03.515Z,7.30
2023-02-09T10:50:50.903Z,9.65
2023-02-09T10:52:26.173Z,8.45
2023-02-09T10:54:03.243Z,9.57
2023-02-09T10:55:39.888Z,8.93
2023-02-09T10:57:26.636Z,7.90
2023-02-09T10:59:02.367Z,7.15
2023-02-09T11:00:39.854Z,5.35
2023-02-09T11:02:34.520Z,8.05
2023-02-09T11:04:18.748Z,8.80
2023-02-09T11:06:00.797Z,8.90
2023-02-09T11:07:38.702Z,9.65
2023-02-09T11:09:17.508Z,6.93
2023-02-09T11:11:01.048Z,5.40
2023-02-09T11:12:36.912Z,7.50
2023-02-09T11:14:14.597Z,8.77
2023-02-09T11:16:02.483Z,7.45
2023-02-09T11:17:40.691Z,6.97
2023-02-09T11:19:39.431Z,6.30
2023-02-09T11:21:18.415Z,5.72
2023-02-09T11:23:07.818Z,7.47
2023-02-09T11:24:55.115Z,7.70
2023-02-09T11:26:40.341Z,8.85
2023-02-09T11:28:29.596Z,9.35
2023-02-09T11:30:16.752Z,7.35
2023-02-09T11:32:09.733Z,4.30
2023-02-09T11:33:54.094Z,6.35
2023-02-09T11:35:37.764Z,7.30
2023-02-09T11:37:25.165Z,5.90
2023-02-09T11:39:01.920Z,8.30
2023-02-09T11:40:41.437Z,6.05
2023-02-09T11:42:37.434Z,5.60
2023-02-09T11:44:21.718Z,6.75
2023-02-09T11:45:58.854Z,9.13
2023-02-09T11:47:43.304Z,8.80
2023-02-09T11:49:24.739Z,7.80
2023-02-09T11:51:03.383Z,9.00
2023-02-09T11:52:43.204Z,9.02
2023-02-09T11:54:18.692Z,5.25
2023-02-09T11:55:57.951Z,3.08
2023-02-09T11:57:37.363Z,8.60
2023-02-09T11:59:19.010Z,9.80
2023-02-09T12:01:13.251Z,8.13
2023-02-09T12:02:58.722Z,9.18
2023-02-09T12:04:42.590Z,8.70
2023-02-09T12:06:22.935Z,9.00
2023-02-09T12:08:20.741Z,6.60
2023-02-09T12:10:04.165Z,6.75
2023-02-09T12:11:57.315Z,7.45
2023-02-09T12:13:39.588Z,6.55
2023-02-09T12:15:17.756Z,6.22
2023-02-09T12:16:59.244Z,5.95
2023-02-09T12:18:36.481Z,7.15
2023-02-09T12:20:25.102Z,6.60
2023-02-09T12:21:58.272Z,7.60
2023-02-09T12:23:33.492Z,8.10
2023-02-09T12:25:18.459Z,7.20
2023-02-09T12:26:57.396Z,8.38
2023-02-09T12:28:42.308Z,8.30
2023-02-09T12:30:52.816Z,5.40
2023-02-09T12:32:42.695Z,6.22
2023-02-09T12:34:24.374Z,7.03
2023-02-09T12:36:02.697Z,7.72
2023-02-09T12:38:15.460Z,8.93
2023-02-09T12:40:18.586Z,7.20
2023-02-09T12:42:28.384Z,9.50
2023-02-09T12:44:39.041Z,7.28
2023-02-09T12:46:26.755Z,7.72
2023-02-09T12:48:12.114Z,8.95
2023-02-09T12:49:45.945Z,5.50
2023-02-09T12:51:42.375Z,8.23
2023-02-09T12:53:46.211Z,6.93
2023-02-09T12:55:22.499Z,5.93
2023-02-09T12:56:55.843Z,9.38
2023-02-09T12:58:36.489Z,8.13
2023-02-09T13:00:40.987Z,7.50
2023-02-09T13:02:18.056Z,6.20
2023-02-09T13:03:59.003Z,6.30
2023-02-09T13:05:38.069Z,9.23
2023-02-09T13:07:24.204Z,8.77
2023-02-09T13:08:59.802Z,7.28
2023-02-09T13:10:39.134Z,8.40
2023-02-09T13:12:15.981Z,8.20
2023-02-09T13:13:54.014Z,9.00
2023-02-09T13:15:34.526Z,9.55
2023-02-09T13:17:40.150Z,7.75
2023-02-09T13:19:27.597Z,8.93
2023-02-09T13:21:18.979Z,11.93
2023-02-09T13:23:04.399Z,12.90
2023-02-09T13:24:40.642Z,15.32
2023-02-09T13:26:23.206Z,12.18
2023-02-09T13:27:56.492Z,12.90
2023-02-09T13:29:31.300Z,9.65
2023-02-09T13:31:18.334Z,11.82
2023-02-09T13:32:57.807Z,8.25
2023-02-09T13:34:38.992Z,8.75
2023-02-09T13:36:26.508Z,13.50
2023-02-09T13:38:01.225Z,10.77
2023-02-09T13:39:40.795Z,7.80
2023-02-09T13:41:37.164Z,7.78
2023-02-09T13:43:18.714Z,7.13
2023-02-09T13:44:53.905Z,5.60
2023-02-09T13:46:28.511Z,6.35
2023-02-09T13:48:04.638Z,4.82
2023-02-09T13:49:39.117Z,5.22
2023-02-09T13:51:17.317Z,7.03
2023-02-09T13:52:51.393Z,8.25
2023-02-09T13:54:24.629Z,6.28
2023-02-09T13:56:01.428Z,8.13
2023-02-09T13:57:37.139Z,7.90
2023-02-09T13:59:13.737Z,8.80
2023-02-09T14:00:49.895Z,8.60
2023-02-09T14:02:27.625Z,10.38
2023-02-09T14:04:06.410Z,12.63
2023-02-09T14:05:45.176Z,17.95
2023-02-09T14:07:19.748Z,9.73
2023-02-09T14:08:54.752Z,8.70
2023-02-09T14:10:29.961Z,2.60
2023-02-09T14:12:09.359Z,12.45
2023-02-09T14:13:46.406Z,8.48
2023-02-09T14:15:39.150Z,10.52
2023-02-09T14:17:24.728Z,12.48
2023-02-09T14:19:00.130Z,10.32
2023-02-09T14:20:33.252Z,9.48
2023-02-09T14:22:27.694Z,9.77
2023-02-09T14:24:22.060Z,9.30
2023-02-09T14:26:04.119Z,9.30
2023-02-09T14:27:38.133Z,6.32
2023-02-09T14:29:17.814Z,10.02
2023-02-09T14:30:51.747Z,9.73
2023-02-09T14:32:34.834Z,8.15
2023-02-09T14:34:28.911Z,10.13
2023-02-09T14:36:03.036Z,7.22
2023-02-09T14:37:38.511Z,12.05
2023-02-09T14:39:16.551Z,11.70
2023-02-09T14:40:49.873Z,11.77
2023-02-09T14:42:24.033Z,10.93
2023-02-09T14:44:04.602Z,8.93
2023-02-09T14:45:41.005Z,9.82
2023-02-09T14:47:30.442Z,9.23
2023-02-09T14:49:03.604Z,14.55
2023-02-09T14:50:36.784Z,15.10
2023-02-09T14:52:15.382Z,16.00
2023-02-09T14:53:51.196Z,15.32
2023-02-09T14:55:27.458Z,14.38
2023-02-09T14:57:03.842Z,17.58
2023-02-09T14:58:37.099Z,21.20
2023-02-09T15:00:19.246Z,5.28
2023-02-09T15:01:54.396Z,14.45
2023-02-09T15:03:27.736Z,19.58
2023-02-09T15:05:01.941Z,12.25
2023-02-09T15:06:36.189Z,15.43
2023-02-09T15:08:15.453Z,15.27
2023-02-09T15:09:51.030Z,17.25
2023-02-09T15:11:42.997Z,15.70
2023-02-09T15:13:16.966Z,11.75
2023-02-09T15:14:50.872Z,13.90
2023-02-09T15:16:24.008Z,14.73
2023-02-09T15:17:59.883Z,12.23
2023-02-09T15:19:32.984Z,17.42
2023-02-09T15:21:06.359Z,13.02
2023-02-09T15:22:39.575Z,21.10
2023-02-09T15:24:12.826Z,18.58
2023-02-09T15:25:47.749Z,15.90
2023-02-09T15:27:27.230Z,14.35
2023-02-09T15:29:00.527Z,16.25
2023-02-09T15:30:35.653Z,20.02
2023-02-09T15:32:14.594Z,14.82
2023-02-09T15:33:47.772Z,16.35
2023-02-09T15:35:23.177Z,16.60
2023-02-09T15:36:56.598Z,15.18
2023-02-09T15:38:29.824Z,14.70
2023-02-09T15:40:05.618Z,17.60
2023-02-09T15:41:57.844Z,17.65
2023-02-09T15:43:48.360Z,20.95
2023-02-09T15:45:41.004Z,23.58
2023-02-09T15:47:32.825Z,20.27
2023-02-09T15:49:07.382Z,17.25
2023-02-09T15:50:44.105Z,12.20
2023-02-09T15:52:19.234Z,12.60
2023-02-09T15:53:54.247Z,13.10
2023-02-09T15:55:28.549Z,16.92
2023-02-09T15:57:03.338Z,12.43
2023-02-09T15:58:38.954Z,16.98
2023-02-09T16:00:18.516Z,16.88
2023-02-09T16:01:53.050Z,12.63
2023-02-09T16:03:26.180Z,14.05
2023-02-09T16:04:59.407Z,17.08
2023-02-09T16:06:32.880Z,16.15
2023-02-09T16:08:06.361Z,15.27
2023-02-09T16:09:40.966Z,13.70
2023-02-09T16:11:20.997Z,22.08
2023-02-09T16:12:56.694Z,37.65
2023-02-09T16:14:31.793Z,19.38
2023-02-09T16:16:16.256Z,21.42
2023-02-09T16:17:50.846Z,17.70
2023-02-09T16:19:24.211Z,15.05
2023-02-09T16:20:57.470Z,18.23
2023-02-09T16:22:33.543Z,30.48
2023-02-09T16:24:08.406Z,21.45
2023-02-09T16:25:42.020Z,24.08
2023-02-09T16:27:18.133Z,13.23
2023-02-09T16:28:54.067Z,13.23
2023-02-09T16:30:29.214Z,12.13
2023-02-09T16:32:02.445Z,13.93
2023-02-09T16:33:36.467Z,16.67
2023-02-09T16:35:16.943Z,15.07
2023-02-09T16:36:50.797Z,15.63
2023-02-09T16:38:26.534Z,17.63
2023-02-09T16:40:01.034Z,21.30
2023-02-09T16:41:57.452Z,29.58
2023-02-09T16:43:30.632Z,26.33
2023-02-09T16:45:06.756Z,20.15
2023-02-09T16:46:40.136Z,16.58
2023-02-09T16:48:20.558Z,14.35
2023-02-09T16:49:59.193Z,15.57
2023-02-09T16:51:32.523Z,15.75
2023-02-09T16:53:16.321Z,17.65
2023-02-09T16:54:51.262Z,17.85
2023-02-09T16:56:26.151Z,16.45
2023-02-09T16:58:01.501Z,22.58
2023-02-09T16:59:34.867Z,22.80
2023-02-09T17:01:15.824Z,19.23
2023-02-09T17:02:53.146Z,21.20
2023-02-09T17:04:26.738Z,19.33
2023-02-09T17:06:01.576Z,21.25
2023-02-09T17:07:48.777Z,18.45
2023-02-09T17:09:27.283Z,16.92
2023-02-09T17:11:01.841Z,15.35
2023-02-09T17:12:35.419Z,21.33
2023-02-09T17:14:08.644Z,23.23
2023-02-09T17:15:45.330Z,22.13
2023-02-09T17:17:22.249Z,21.33
2023-02-09T17:18:58.105Z,17.67
2023-02-09T17:20:37.460Z,55.58
2023-02-09T17:22:12.790Z,18.08
2023-02-09T17:23:46.020Z,15.60
2023-02-09T17:25:21.038Z,17.02
2023-02-09T17:26:54.250Z,21.80
2023-02-09T17:28:29.034Z,17.85
2023-02-09T17:30:02.197Z,20.67
2023-02-09T17:31:52.018Z,16.45
2023-02-09T17:33:30.672Z,17.02
2023-02-09T17:35:03.853Z,19.17
2023-02-09T17:36:37.622Z,18.90
2023-02-09T17:38:23.125Z,17.50
2023-02-09T17:39:56.467Z,18.52
2023-02-09T17:41:33.923Z,17.58
2023-02-09T17:43:07.095Z,16.77
2023-02-09T17:44:46.346Z,17.10
2023-02-09T17:46:20.623Z,16.13
2023-02-09T17:47:55.270Z,17.58
2023-02-09T17:49:29.848Z,17.65
2023-02-09T17:51:04.747Z,17.25
2023-02-09T17:52:38.015Z,11.82
2023-02-09T17:54:14.790Z,12.98
2023-02-09T17:55:48.998Z,17.90
2023-02-09T17:57:22.614Z,18.80
2023-02-09T17:58:57.461Z,18.85
2023-02-09T18:00:30.760Z,24.60
2023-02-09T18:02:03.898Z,23.92
2023-02-09T18:03:37.226Z,24.17
2023-02-09T18:05:19.424Z,22.55
2023-02-09T18:06:52.601Z,20.83
2023-02-09T18:08:27.373Z,20.48
2023-02-09T18:10:02.423Z,20.58
2023-02-09T18:11:57.051Z,19.10
2023-02-09T18:13:30.226Z,24.95
2023-02-09T18:15:04.468Z,37.47
2023-02-09T18:16:37.778Z,25.95
2023-02-09T18:18:11.554Z,22.00
2023-02-09T18:19:44.826Z,23.17
2023-02-09T18:21:19.289Z,26.42
2023-02-09T18:22:53.424Z,23.70
2023-02-09T18:24:29.775Z,22.83
2023-02-09T18:26:03.105Z,20.92
2023-02-09T18:27:36.223Z,26.10
2023-02-09T18:29:09.459Z,24.50
2023-02-09T18:30:43.546Z,21.90
2023-02-09T18:32:17.755Z,20.63
2023-02-09T18:33:50.867Z,18.05
2023-02-09T18:35:26.191Z,24.17
2023-02-09T18:37:01.007Z,25.67
2023-02-09T18:38:35.448Z,24.88
2023-02-09T18:40:08.920Z,23.67
2023-02-09T18:41:44.521Z,22.10
2023-02-09T18:43:17.911Z,17.65
2023-02-09T18:44:51.811Z,18.90
2023-02-09T18:46:27.075Z,18.05
2023-02-09T18:48:00.967Z,17.48
2023-02-09T18:49:34.594Z,20.17
2023-02-09T18:51:08.397Z,15.57
2023-02-09T18:52:54.127Z,14.32
2023-02-09T18:54:29.004Z,15.65
2023-02-09T18:56:02.454Z,17.33
2023-02-09T18:57:35.596Z,18.65
2023-02-09T18:59:08.834Z,22.40
2023-02-09T19:00:42.049Z,17.58
2023-02-09T19:02:16.290Z,19.40
2023-02-09T19:03:50.551Z,23.75
2023-02-09T19:05:26.086Z,25.48
2023-02-09T19:07:00.506Z,30.65
2023-02-09T19:08:35.625Z,39.42
2023-02-09T19:10:11.915Z,97.68
2023-02-09T19:11:45.025Z,38.25
2023-02-09T19:13:18.140Z,42.28
2023-02-09T19:14:52.632Z,30.90
2023-02-09T19:16:25.823Z,24.77
2023-02-09T19:17:59.158Z,30.45
2023-02-09T19:19:32.727Z,22.38
2023-02-09T19:21:06.817Z,29.92
2023-02-09T19:22:40.047Z,27.15
2023-02-09T19:24:14.763Z,26.52
2023-02-09T19:25:48.162Z,20.58
2023-02-09T19:27:21.728Z,23.85
2023-02-09T19:28:57.194Z,29.45
2023-02-09T19:30:30.302Z,32.28
2023-02-09T19:32:05.646Z,22.45
2023-02-09T19:33:39.157Z,19.17
2023-02-09T19:35:12.422Z,20.02
2023-02-09T19:36:45.642Z,19.38
2023-02-09T19:38:18.803Z,17.42
2023-02-09T19:40:00.776Z,21.88
2023-02-09T19:41:33.890Z,25.25
2023-02-09T19:43:07.061Z,28.17
2023-02-09T19:44:40.190Z,35.78
2023-02-09T19:46:13.651Z,27.45
2023-02-09T19:47:46.902Z,18.98
2023-02-09T19:49:20.131Z,23.80
2023-02-09T19:50:56.772Z,25.13
2023-02-09T19:52:30.311Z,23.95
2023-02-09T19:54:03.661Z,15.77
2023-02-09T19:55:38.163Z,14.18
2023-02-09T19:57:11.292Z,14.57
2023-02-09T19:58:45.314Z,17.77
2023-02-09T20:00:19.629Z,11.32
2023-02-09T20:01:52.810Z,17.55
2023-02-09T20:03:26.595Z,17.65
2023-02-09T20:05:00.121Z,15.38
2023-02-09T20:06:34.599Z,19.35
2023-02-09T20:08:07.822Z,15.00
2023-02-09T20:09:40.938Z,14.85
2023-02-09T20:11:18.475Z,16.27
2023-02-09T20:12:51.718Z,21.60
2023-02-09T20:14:26.792Z,24.00
2023-02-09T20:16:01.757Z,40.78
2023-02-09T20:17:35.064Z,30.83
2023-02-09T20:19:08.294Z,32.25
2023-02-09T20:20:42.002Z,32.25
2023-02-09T20:22:15.448Z,33.67
2023-02-09T20:23:49.336Z,32.58
2023-02-09T20:25:22.587Z,34.65
2023-02-09T20:26:57.173Z,40.95
2023-02-09T20:28:30.674Z,37.53
2023-02-09T20:30:05.394Z,27.08
2023-02-09T20:31:42.175Z,24.67
2023-02-09T20:33:15.908Z,24.13
2023-02-09T20:34:49.193Z,24.55
2023-02-09T20:36:25.504Z,22.52
2023-02-09T20:37:58.967Z,23.23
2023-02-09T20:39:32.202Z,17.25
2023-02-09T20:41:09.377Z,17.95
2023-02-09T20:43:01.323Z,19.27
2023-02-09T20:44:52.309Z,22.05
2023-02-09T20:46:45.005Z,17.48
2023-02-09T20:48:20.058Z,15.10
2023-02-09T20:49:53.576Z,16.70
2023-02-09T20:51:26.698Z,14.75
2023-02-09T20:53:01.490Z,15.32
2023-02-09T20:54:35.059Z,14.45
2023-02-09T20:56:08.681Z,12.00
2023-02-09T20:57:43.291Z,15.00
2023-02-09T20:59:16.936Z,13.15
2023-02-09T21:00:50.492Z,15.82